Date,TemperatureHighF,TemperatureAvgF,TemperatureLowF,DewpointHighF,DewpointAvgF,DewpointLowF,HumidityHigh,HumidityAvg,HumidityLow,PressureMaxIn,PressureMinIn,WindSpeedMaxMPH,WindSpeedAvgMPH,GustSpeedMaxMPH,PrecipitationSumIn
2013-7-1,70.3,58.9,51.6,55.0,51.2,46.2,99,77,43,30.33,30.27,24,10,24,0.34
2013-7-2,75.7,62.6,51.3,52.7,42.2,12.7,99,54,11,30.33,30.23,35,12,35,0.00
2013-7-3,81.3,66.7,54.1,44.1,33.1,14.7,64,36,10,30.24,30.07,29,11,29,0.00
2013-7-4,83.3,69.9,58.1,44.9,31.2,16.6,61,27,10,30.14,30.08,31,11,31,0.00
2013-7-5,87.1,68.7,57.9,55.4,41.3,23.6,84,42,10,30.09,30.02,34,10,40,0.09
2013-7-6,69.1,63.0,59.2,54.7,49.1,44.7,78,61,48,30.08,29.87,25,10,25,0.09
2013-7-7,84.4,67.9,59.2,53.4,45.7,31.3,67,48,16,29.98,29.88,43,10,43,0.00
2013-7-8,91.6,74.0,60.1,50.4,36.5,20.0,68,30,10,30.00,29.93,40,13,40,0.00
2013-7-9,90.0,76.2,66.6,38.6,29.1,17.4,33,19,10,30.08,29.99,30,7,30,0.00
2013-7-10,82.4,68.2,57.7,55.6,45.1,30.0,82,47,22,30.07,29.95,34,12,34,0.07
2013-7-11,85.5,69.2,-28.8,55.7,49.5,-46.8,99,56,17,30.01,29.85,34,17,34,0.02
2013-7-12,87.3,72.7,62.4,53.8,44.0,28.4,72,39,13,30.65,29.86,30,11,30,0.00
2013-7-13,86.4,66.8,57.7,58.5,52.0,35.4,96,64,19,30.00,29.94,43,8,43,0.34
2013-7-14,72.9,64.1,55.8,59.8,53.8,46.6,99,72,48,30.04,29.96,31,13,31,0.40
2013-7-15,68.4,58.7,51.3,60.0,53.1,40.6,99,84,45,30.04,29.97,24,11,24,0.05
2013-7-16,70.2,59.3,48.9,55.9,47.2,40.9,99,68,37,30.08,29.96,34,20,34,0.00
2013-7-17,72.0,58.5,52.2,55.5,52.3,44.1,99,83,38,30.08,30.04,34,20,34,0.00
2013-7-18,61.5,60.8,59.7,48.0,47.6,47.1,64,62,59,30.02,30.01,12,10,12,0.00
2013-7-19,77.0,64.8,55.2,55.9,51.0,47.0,86,63,35,30.03,29.96,27,12,31,0.00
2013-7-20,86.4,67.9,54.0,56.6,48.5,21.1,99,58,10,29.98,29.84,35,12,35,0.00
2013-7-21,87.6,72.5,56.7,52.0,36.2,17.8,82,34,10,29.90,29.84,33,15,33,0.00
2013-7-22,89.4,75.9,66.2,38.0,26.3,14.5,31,17,10,29.92,29.84,36,12,36,0.00
2013-7-23,88.5,76.3,64.6,50.1,25.9,16.0,59,19,10,30.02,29.89,33,13,33,0.00
2013-7-24,70.7,61.7,51.3,61.9,55.0,38.4,99,81,36,30.08,29.97,51,16,51,0.46
2013-7-25,72.3,60.7,50.2,54.5,48.8,40.7,99,68,35,30.08,29.92,46,14,46,0.00
2013-7-26,80.1,65.8,56.7,50.9,45.6,37.5,71,50,22,30.10,30.03,24,9,24,0.00
2013-7-27,83.5,65.6,54.5,57.8,45.3,20.9,99,54,11,30.04,29.89,23,11,24,0.01
2013-7-28,72.3,58.4,53.6,61.1,55.8,53.3,99,92,52,29.93,29.83,24,8,24,0.34
2013-7-29,71.6,61.9,55.4,56.2,51.1,41.2,99,70,40,30.03,29.83,34,11,34,0.04
2013-7-30,83.1,67.2,54.5,51.9,42.1,29.5,81,44,15,30.10,30.01,29,9,29,0.05
2013-7-31,80.8,68.4,56.3,58.4,46.2,33.7,99,48,20,30.15,30.03,36,12,36,0.30